• Join FlightAware (Why Join?)
  • Login
  • US Flag 
10:24PM EDT


 

Airport Tracker/Info


-or-


 

Live Flight TrackerFlight Track Log ✈ EJA296 ✈ 09-Jul-2013 ✈ KOMA - KSDL

Flight Track Log - Related Links

Times and Time Zones

All times are in EDT time to prevent confusion due to time zone crossing. See the EJA296 flight status page for this flight to view local times or setup timezone preferences in your user account.

Time Position Orientation Groundspeed Altitude Reporting Facility
EDT Latitude Longitude Course Direction KTS MPH feet Rate Location/Type
06:37PM 41.3192 -95.9111 322° Northwest 168 193 1,500  Level Minneapolis Center
06:38PM 41.3483 -95.9411 322° Northwest 189 217 3,100 1,800 Climbing Minneapolis Center
06:39PM 41.3569 -95.9744 289° West 263 303 4,000 2,100 Climbing Minneapolis Center
06:40PM 41.3247 -96.0708 246° West 265 305 6,700 2,460 Climbing Minneapolis Center
06:41PM 41.2906 -96.1667 245° Southwest 277 319 9,100 2,100 Climbing Minneapolis Center
06:42PM 41.2556 -96.2658 245° Southwest 291 335 11,100 2,040 Climbing Minneapolis Center
06:43PM 41.2156 -96.3950 248° West 310 357 13,400 1,980 Climbing Minneapolis Center
06:44PM 41.1808 -96.5056 247° West 319 367 15,300 1,800 Climbing Minneapolis Center
06:45PM 41.1456 -96.6161 247° West 324 373 17,200 1,680 Climbing Minneapolis Center
06:46PM 41.1103 -96.7278 247° West 327 376 18,900 1,620 Climbing Minneapolis Center
06:47PM 41.0742 -96.8431 247° West 336 387 20,600 1,560 Climbing Minneapolis Center
06:48PM 41.0531 -96.9639 257° West 337 388 22,200 1,560 Climbing Minneapolis Center
06:49PM 41.0311 -97.1128 259° West 341 392 23,900 1,440 Climbing Minneapolis Center
06:50PM 41.0128 -97.2375 259° West 344 396 25,200 1,200 Climbing Minneapolis Center
06:51PM 40.9953 -97.3661 260° West 352 405 26,500 1,200 Climbing Minneapolis Center
06:52PM 40.9797 -97.4900 261° West 354 407 27,800 1,140 Climbing Minneapolis Center
06:53PM 40.9622 -97.6178 260° West 353 406 28,900 960 Climbing Minneapolis Center
06:54PM 40.9456 -97.7472 260° West 356 410 29,900 960 Climbing Minneapolis Center
06:55PM 40.9267 -97.9069 261° West 363 418 31,000 900 Climbing Minneapolis Center
06:56PM 40.9083 -98.0431 260° West 371 427 31,800 720 Climbing Minneapolis Center
06:57PM 40.8878 -98.1792 259° West 375 432 32,600 780 Climbing Minneapolis Center
06:58PM 40.8611 -98.3158 256° West 379 436 33,500 660 Climbing Minneapolis Center
06:59PM 40.8325 -98.4542 255° West 383 441 34,000 240 Climbing Minneapolis Center
07:00PM 40.8031 -98.5953 255° West 390 449 34,000  Level Minneapolis Center
07:02PM 40.7564 -98.7658 250° West 403 464 34,000  Level Minneapolis Center
07:03PM 40.6972 -98.9042 241° Southwest 416 479 34,000  Level Minneapolis Center
07:04PM 40.6467 -99.0425 244° Southwest 418 481 34,000  Level Minneapolis Center
07:05PM 40.5939 -99.1792 243° Southwest 417 480 34,000  Level Minneapolis Center
07:06PM 40.5408 -99.3175 243° Southwest 420 483 34,000  Level Minneapolis Center
07:06PM 40.5097 -99.3989 243° Southwest 420 483 34,000  Level Denver Center
07:07PM 40.4475 -99.5319 238° Southwest 424 488 34,000  Level Denver Center
07:08PM 40.3883 -99.6678 240° Southwest 428 493 34,000 480 Level Denver Center
07:09PM 40.3292 -99.7983 239° Southwest 417 480 35,100 1,200 Climbing Denver Center
07:10PM 40.2683 -99.9350 240° Southwest 397 457 36,600 1,200 Climbing Denver Center
07:11PM 40.2150 -100.0503 239° Southwest 387 445 37,700 1,080 Climbing Denver Center
07:12PM 40.1567 -100.1811 240° Southwest 375 432 38,900 900 Climbing Denver Center
07:13PM 40.1053 -100.2947 239° Southwest 377 434 39,600 480 Climbing Denver Center
07:14PM 40.0517 -100.4100 239° Southwest 385 443 40,000 180 Climbing Denver Center
07:15PM 39.9850 -100.5542 239° Southwest 412 474 40,000  Level Denver Center
07:16PM 39.9281 -100.6803 240° Southwest 420 483 40,000  Level Denver Center
07:18PM 39.8575 -100.8303 239° Southwest 432 497 40,000  Level Denver Center
07:19PM 39.7967 -100.9611 239° Southwest 440 506 40,000  Level Denver Center
07:20PM 39.7264 -101.1125 239° Southwest 437 503 40,000  Level Denver Center
07:21PM 39.6656 -101.2422 239° Southwest 439 505 40,000  Level Denver Center
07:22PM 39.5953 -101.3911 239° Southwest 435 501 40,000  Level Denver Center
07:23PM 39.5339 -101.5178 238° Southwest 433 498 40,000  Level Denver Center
07:24PM 39.4739 -101.6453 239° Southwest 433 498 40,000  Level Denver Center
07:25PM 39.4019 -101.7936 238° Southwest 435 501 40,000  Level Denver Center
07:26PM 39.3403 -101.9239 239° Southwest 441 507 40,000  Level Denver Center
07:27PM 39.2753 -102.0589 238° Southwest 441 507 40,000  Level Denver Center
07:28PM 39.2039 -102.2069 238° Southwest 436 502 40,000  Level Denver Center
07:29PM 39.1425 -102.3319 238° Southwest 433 498 40,000  Level Denver Center
07:30PM 39.0697 -102.4803 238° Southwest 437 503 40,000  Level Denver Center
07:31PM 39.0083 -102.6058 238° Southwest 435 501 40,000  Level Denver Center
07:32PM 38.9356 -102.7542 238° Southwest 435 501 40,000  Level Denver Center
07:33PM 38.8678 -102.8914 238° Southwest 434 499 40,000  Level Denver Center
07:34PM 38.8019 -103.0222 237° Southwest 436 502 40,000  Level Denver Center
07:35PM 38.7369 -103.1533 238° Southwest 438 504 40,000  Level Denver Center
07:36PM 38.6711 -103.2844 237° Southwest 439 505 40,000  Level Denver Center
07:37PM 38.5925 -103.4414 237° Southwest 439 505 40,000  Level Denver Center
07:38PM 38.5178 -103.5878 237° Southwest 438 504 40,000  Level Denver Center
07:39PM 38.4539 -103.7122 237° Southwest 439 505 40,000  Level Denver Center
07:40PM 38.3797 -103.8606 238° Southwest 444 511 40,000  Level Denver Center
07:41PM 38.3144 -103.9878 237° Southwest 450 518 40,000  Level Denver Center
07:42PM 38.2364 -104.1372 236° Southwest 455 524 40,000  Level Denver Center
07:44PM 38.1725 -104.2628 237° Southwest 447 514 40,000  Level Denver Center
07:45PM 38.0975 -104.4069 237° Southwest 441 507 40,000  Level Denver Center
07:46PM 38.0319 -104.5319 236° Southwest 444 511 40,000  Level Denver Center
07:47PM 37.9561 -104.6778 237° Southwest 446 513 40,000  Level Denver Center
07:48PM 37.8911 -104.8011 236° Southwest 443 510 40,000  Level Denver Center
07:49PM 37.8147 -104.9475 237° Southwest 446 513 40,000  Level Denver Center
07:50PM 37.7483 -105.0722 236° Southwest 448 516 40,000  Level Denver Center
07:51PM 37.6703 -105.2167 236° Southwest 446 513 40,000  Level Denver Center
07:52PM 37.6047 -105.3411 236° Southwest 446 513 40,000 240 Level Denver Center
07:53PM 37.5261 -105.4886 236° Southwest 444 511 40,500  Climbing Denver Center
07:54PM 37.4597 -105.6089 235° Southwest 446 513 40,000 -300 Descending Denver Center
07:55PM 37.3817 -105.7531 236° Southwest 447 514 40,000  Level Denver Center
07:56PM 37.3117 -105.8786 235° Southwest 446 513 40,000  Level Denver Center
07:57PM 37.2414 -105.9986 234° Southwest 445 512 40,000  Level Denver Center
07:58PM 37.1597 -106.1386 234° Southwest 445 512 40,000  Level Denver Center
07:59PM 37.0928 -106.2569 235° Southwest 448 516 40,000  Level Denver Center
08:00PM 37.0431 -106.4206 249° West 439 505 40,000  Level Denver Center
08:01PM 36.9981 -106.5550 247° West 439 505 40,000  Level Denver Center
08:02PM 36.9478 -106.7144 249° West 440 506 40,000  Level Denver Center
08:03PM 36.9011 -106.8478 246° West 438 504 40,000  Level Denver Center
08:04PM 36.8481 -107.0047 247° West 441 507 40,000  Level Denver Center
08:05PM 36.8025 -107.1397 247° West 440 506 40,000  Level Denver Center
08:06PM 36.7489 -107.2964 247° West 439 505 40,000  Level Denver Center
08:07PM 36.7050 -107.4314 248° West 439 505 40,000  Level Denver Center
08:09PM 36.6428 -107.6108 247° West 442 509 40,000  Level Denver Center
08:10PM 36.5967 -107.7439 247° West 441 507 40,000  Level Denver Center
08:11PM 36.5436 -107.9006 247° West 440 506 40,000  Level Denver Center
08:12PM 36.4964 -108.0342 246° West 440 506 40,000  Level Denver Center
08:13PM 36.4419 -108.1903 247° West 441 507 40,000  Level Denver Center
08:14PM 36.3956 -108.3247 247° West 442 509 40,000  Level Denver Center
08:15PM 36.3478 -108.4581 246° West 443 510 40,000 -360 Level Denver Center
08:16PM 36.2931 -108.6131 246° West 441 507 39,300 -840 Descending Denver Center
08:17PM 36.2447 -108.7494 246° West 448 516 38,300 -1,020 Descending Denver Center
08:18PM 36.1883 -108.9125 247° West 465 535 37,200 -1,080 Descending Denver Center
08:19PM 36.1281 -109.0706 245° Southwest 465 535 36,100 -720 Descending Denver Center
08:19PM 36.0947 -109.1608 245° Southwest 462 532 36,000 -60 Descending Albuquerque Center
08:21PM 36.0453 -109.2961 246° West 454 522 36,000 -300 Level Albuquerque Center
08:22PM 35.9872 -109.4564 246° West 458 527 35,500 -900 Descending Albuquerque Center
08:23PM 35.9369 -109.5931 246° West 457 526 34,200 -960 Descending Albuquerque Center
08:23PM 35.9025 -109.6875 246° West 464 534 34,000 -120 Descending Denver Center
08:25PM 35.8231 -109.8908 244° Southwest 460 529 34,000  Level Albuquerque Center
08:26PM 35.7722 -110.0275 245° Southwest 460 529 34,000  Level Albuquerque Center
08:27PM 35.7131 -110.1869 245° Southwest 458 527 34,000  Level Albuquerque Center
08:28PM 35.6614 -110.3236 245° Southwest 459 528 34,000 -300 Level Albuquerque Center
08:29PM 35.6017 -110.4817 245° Southwest 457 526 33,500 -900 Descending Albuquerque Center
08:30PM 35.5508 -110.6131 245° Southwest 449 517 32,200 -1,380 Descending Albuquerque Center
08:31PM 35.5008 -110.7469 245° Southwest 448 516 30,700 -1,560 Descending Albuquerque Center
08:32PM 35.3906 -110.8606 220° Southwest 465 535 29,000 -1,620 Descending Albuquerque Center
08:33PM 35.2881 -110.9525 216° Southwest 473 544 27,500 -1,680 Descending Albuquerque Center
08:34PM 35.1647 -111.0600 215° Southwest 483 556 25,600 -1,680 Descending Albuquerque Center
08:35PM 35.0739 -111.1503 219° Southwest 491 565 24,100 -1,740 Descending Albuquerque Center
08:36PM 34.9439 -111.2661 216° Southwest 485 558 22,100 -1,800 Descending Albuquerque Center
08:37PM 34.8342 -111.3644 216° Southwest 487 560 20,400 -1,680 Descending Albuquerque Center
08:38PM 34.7244 -111.4611 216° Southwest 488 562 18,700 -1,560 Descending Albuquerque Center
08:39PM 34.6183 -111.5544 216° Southwest 478 550 17,300 -1,620 Descending Albuquerque Center
08:40PM 34.5139 -111.6461 216° Southwest 470 541 15,400 -2,100 Descending Albuquerque Center
08:41PM 34.4206 -111.7283 216° Southwest 430 495 13,000 -2,100 Descending Albuquerque Center
08:42PM 34.3353 -111.8025 216° Southwest 391 450 11,100 -1,020 Descending Albuquerque Center
08:43PM 34.2414 -111.8844 216° Southwest 359 413 11,000 -60 Descending Albuquerque Center
08:44PM 34.1622 -111.9225 202° Southwest 324 373 11,000 -480 Level Albuquerque Center
08:45PM 34.0750 -111.9286 183° South 318 366 10,100 -1,320 Descending Albuquerque Center
08:46PM 33.9881 -111.9336 183° South 318 366 8,400 -1,320 Descending Albuquerque Center
08:47PM 33.9089 -111.9386 183° South 293 337 7,400 -840 Descending Albuquerque Center
08:48PM 33.8169 -111.9433 182° South 279 321 6,700 -780 Descending Albuquerque Center
08:49PM 33.7528 -111.9031 152° Southeast 261 300 5,900 -1,020 Descending Albuquerque Center
08:50PM 33.7053 -111.8706 150° Southeast 197 227 4,700 -1,560 Descending Albuquerque Center
08:51PM 33.6669 -111.8631 171° South 164 189 2,800 -1,440 Descending Albuquerque Center
08:52PM 33.6392 -111.8911 220° Southwest 145 167 1,800 -1,020 Descending Albuquerque Center
08:54PM 33.6229 -111.9105 189° South  Level Estimated